Archbold, Ohio
Current Conditions -  °F | °C
As of 4:55 PM on Saturday 25 Oct 2014 (Local Time) from KUSE Reporting Station
Clear Clear  
Wind Chill: 70°   Ceiling: Unl
Heat Index: 70°   Visibility: 10mi
Dew Point: 39°   Wind: 23mph
Humidity: 33%   Direction: 280°W
Pressure: 29.81"   Gusts: 31mph
Location:  41.52°N, 84.31°W
Report Text: KUSE 252055Z AUTO 28020G27KT 10SM CLR 21/04 A2981 RMK AO2
Loading
Personal Weather Stations






























Interactive Weather Map
Tropical Storm Tracking
New forecast layout! Learn more

10-Day Weather Forecast

Advertisements
Track Severe Weather on mobile